Terminal Aerodrome Forecast
Issued by NWS Tampa Bay Area, FL

Home | Current Version | Previous Version | Text Only | Print | Product List | Glossary On
Versions: 1 2 3 4 5 6 7 8 9 10 11 12 13
000
FTUS42 KTBW 211138
TAFFMY
TAF
KFMY 211138Z 2112/2212 15004KT 3SM BR SCT005
      TEMPO 2112/2113 1/2SM FG BKN005
     FM211400 17006KT P6SM FEW005 SCT250
     FM211600 19010KT P6SM FEW030 SCT250
     FM211800 22012G20KT P6SM FEW030 SCT250
     FM220000 18008KT P6SM BKN250=

USA.gov is the U.S. government's official web portal to all federal, state and local government web resources and services.